sensor_id;sensor_type;location;lat;lon;timestamp;temperature;humidity
37310;DHT22;23195;47.744;7.358;2022-07-21T00:16:55;20.70;99.90
37310;DHT22;23195;47.744;7.358;2022-07-21T00:19:21;20.80;99.90
37310;DHT22;23195;47.744;7.358;2022-07-21T00:21:47;20.80;99.90
37310;DHT22;23195;47.744;7.358;2022-07-21T00:24:12;20.70;99.90
37310;DHT22;23195;47.744;7.358;2022-07-21T00:26:38;20.70;99.90
37310;DHT22;23195;47.744;7.358;2022-07-21T00:29:07;20.60;99.90
37310;DHT22;23195;47.744;7.358;2022-07-21T00:31:48;20.70;99.90
37310;DHT22;23195;47.744;7.358;2022-07-21T00:34:24;20.70;99.90
37310;DHT22;23195;47.744;7.358;2022-07-21T00:36:57;20.60;99.90
37310;DHT22;23195;47.744;7.358;2022-07-21T00:39:25;20.60;99.90
37310;DHT22;23195;47.744;7.358;2022-07-21T00:42:26;20.60;99.90
37310;DHT22;23195;47.744;7.358;2022-07-21T00:44:53;20.50;99.90
37310;DHT22;23195;47.744;7.358;2022-07-21T00:47:26;20.50;99.90
37310;DHT22;23195;47.744;7.358;2022-07-21T00:50:56;20.50;99.90
37310;DHT22;23195;47.744;7.358;2022-07-21T01:05:05;20.10;99.90
37310;DHT22;23195;47.744;7.358;2022-07-21T01:08:07;20.70;99.90
37310;DHT22;23195;47.744;7.358;2022-07-21T01:10:53;20.10;99.90
37310;DHT22;23195;47.744;7.358;2022-07-21T01:13:30;20.10;99.90
37310;DHT22;23195;47.744;7.358;2022-07-21T01:16:09;20.10;99.90
37310;DHT22;23195;47.744;7.358;2022-07-21T01:18:57;19.90;99.90
37310;DHT22;23195;47.744;7.358;2022-07-21T02:25:06;20.70;99.90
37310;DHT22;23195;47.744;7.358;2022-07-21T03:01:13;20.40;99.90
37310;DHT22;23195;47.744;7.358;2022-07-21T03:03:39;20.30;99.90
37310;DHT22;23195;47.744;7.358;2022-07-21T03:06:05;20.20;99.90
37310;DHT22;23195;47.744;7.358;2022-07-21T03:08:32;20.10;99.90
37310;DHT22;23195;47.744;7.358;2022-07-21T03:10:58;20.10;99.90
37310;DHT22;23195;47.744;7.358;2022-07-21T03:13:24;20.20;99.90
37310;DHT22;23195;47.744;7.358;2022-07-21T03:15:52;20.20;99.90
37310;DHT22;23195;47.744;7.358;2022-07-21T03:18:18;20.10;99.90
37310;DHT22;23195;47.744;7.358;2022-07-21T03:20:45;20.00;99.90
37310;DHT22;23195;47.744;7.358;2022-07-21T03:23:11;19.90;99.90
37310;DHT22;23195;47.744;7.358;2022-07-21T03:25:37;19.80;99.90
37310;DHT22;23195;47.744;7.358;2022-07-21T03:28:03;19.70;99.90
37310;DHT22;23195;47.744;7.358;2022-07-21T03:30:31;19.60;99.90
37310;DHT22;23195;47.744;7.358;2022-07-21T03:32:58;19.50;99.90
37310;DHT22;23195;47.744;7.358;2022-07-21T03:35:24;19.40;99.90
37310;DHT22;23195;47.744;7.358;2022-07-21T03:37:55;19.40;99.90
37310;DHT22;23195;47.744;7.358;2022-07-21T03:40:29;19.30;99.90
37310;DHT22;23195;47.744;7.358;2022-07-21T03:42:56;19.20;99.90
37310;DHT22;23195;47.744;7.358;2022-07-21T03:45:23;19.10;99.90
37310;DHT22;23195;47.744;7.358;2022-07-21T03:47:53;19.10;99.90
37310;DHT22;23195;47.744;7.358;2022-07-21T03:50:22;19.10;99.90
37310;DHT22;23195;47.744;7.358;2022-07-21T03:52:48;19.10;99.90
37310;DHT22;23195;47.744;7.358;2022-07-21T03:55:14;19.10;99.90
37310;DHT22;23195;47.744;7.358;2022-07-21T03:57:52;19.10;99.90
37310;DHT22;23195;47.744;7.358;2022-07-21T04:00:23;19.10;99.90
37310;DHT22;23195;47.744;7.358;2022-07-21T04:02:53;19.10;99.90
37310;DHT22;23195;47.744;7.358;2022-07-21T04:05:19;19.20;99.90
37310;DHT22;23195;47.744;7.358;2022-07-21T04:07:48;19.10;99.90
37310;DHT22;23195;47.744;7.358;2022-07-21T04:10:15;19.10;99.90
37310;DHT22;23195;47.744;7.358;2022-07-21T04:12:42;19.30;99.90
37310;DHT22;23195;47.744;7.358;2022-07-21T04:15:14;19.20;99.90
37310;DHT22;23195;47.744;7.358;2022-07-21T04:17:40;19.20;99.90
37310;DHT22;23195;47.744;7.358;2022-07-21T04:20:10;19.10;99.90
37310;DHT22;23195;47.744;7.358;2022-07-21T04:22:46;19.20;99.90
37310;DHT22;23195;47.744;7.358;2022-07-21T04:25:13;19.10;99.90
37310;DHT22;23195;47.744;7.358;2022-07-21T04:27:42;19.10;99.90
37310;DHT22;23195;47.744;7.358;2022-07-21T04:30:12;19.10;99.90
37310;DHT22;23195;47.744;7.358;2022-07-21T04:32:38;19.20;99.90
37310;DHT22;23195;47.744;7.358;2022-07-21T04:35:05;19.30;99.90
37310;DHT22;23195;47.744;7.358;2022-07-21T04:37:35;19.60;99.90
37310;DHT22;23195;47.744;7.358;2022-07-21T04:40:03;19.90;99.90
37310;DHT22;23195;47.744;7.358;2022-07-21T04:42:30;20.20;99.90
37310;DHT22;23195;47.744;7.358;2022-07-21T04:44:56;20.80;99.90
37310;DHT22;23195;47.744;7.358;2022-07-21T04:47:22;21.30;99.90
37310;DHT22;23195;47.744;7.358;2022-07-21T04:49:48;21.90;99.90
37310;DHT22;23195;47.744;7.358;2022-07-21T04:52:14;22.40;99.90
37310;DHT22;23195;47.744;7.358;2022-07-21T04:54:49;23.10;99.90
37310;DHT22;23195;47.744;7.358;2022-07-21T04:57:14;23.70;99.90
37310;DHT22;23195;47.744;7.358;2022-07-21T04:59:40;23.90;99.90
37310;DHT22;23195;47.744;7.358;2022-07-21T05:02:10;24.30;99.90
37310;DHT22;23195;47.744;7.358;2022-07-21T05:04:35;24.70;99.90
37310;DHT22;23195;47.744;7.358;2022-07-21T05:07:01;25.40;99.90
37310;DHT22;23195;47.744;7.358;2022-07-21T05:09:36;25.80;99.90
37310;DHT22;23195;47.744;7.358;2022-07-21T05:12:06;26.40;99.90
37310;DHT22;23195;47.744;7.358;2022-07-21T05:14:31;26.50;99.90
37310;DHT22;23195;47.744;7.358;2022-07-21T05:17:00;26.10;99.90
37310;DHT22;23195;47.744;7.358;2022-07-21T05:19:29;25.70;99.90
37310;DHT22;23195;47.744;7.358;2022-07-21T05:21:57;25.30;99.90
37310;DHT22;23195;47.744;7.358;2022-07-21T05:24:23;25.50;99.90
37310;DHT22;23195;47.744;7.358;2022-07-21T05:26:49;26.30;99.90
37310;DHT22;23195;47.744;7.358;2022-07-21T05:29:15;26.90;99.90
37310;DHT22;23195;47.744;7.358;2022-07-21T05:31:44;27.50;99.90
37310;DHT22;23195;47.744;7.358;2022-07-21T05:34:16;28.10;99.90
37310;DHT22;23195;47.744;7.358;2022-07-21T05:36:42;28.40;99.90
37310;DHT22;23195;47.744;7.358;2022-07-21T05:39:08;28.90;99.90
37310;DHT22;23195;47.744;7.358;2022-07-21T05:41:33;29.20;99.90
37310;DHT22;23195;47.744;7.358;2022-07-21T05:43:59;29.60;99.90
37310;DHT22;23195;47.744;7.358;2022-07-21T05:46:25;29.80;99.90
37310;DHT22;23195;47.744;7.358;2022-07-21T05:48:53;30.50;99.90
37310;DHT22;23195;47.744;7.358;2022-07-21T05:51:22;31.00;99.90
37310;DHT22;23195;47.744;7.358;2022-07-21T05:53:48;31.50;99.90
37310;DHT22;23195;47.744;7.358;2022-07-21T05:56:14;31.30;99.60
37310;DHT22;23195;47.744;7.358;2022-07-21T05:58:40;31.20;98.90
37310;DHT22;23195;47.744;7.358;2022-07-21T06:01:06;31.20;99.40
37310;DHT22;23195;47.744;7.358;2022-07-21T06:03:43;31.40;98.00
37310;DHT22;23195;47.744;7.358;2022-07-21T06:06:13;31.40;98.00
37310;DHT22;23195;47.744;7.358;2022-07-21T06:08:42;31.80;96.60
37310;DHT22;23195;47.744;7.358;2022-07-21T06:11:12;32.30;95.70
37310;DHT22;23195;47.744;7.358;2022-07-21T06:13:38;32.60;93.70
37310;DHT22;23195;47.744;7.358;2022-07-21T06:16:05;32.00;94.70
37310;DHT22;23195;47.744;7.358;2022-07-21T06:18:31;32.00;94.80
37310;DHT22;23195;47.744;7.358;2022-07-21T06:20:57;32.30;94.20
37310;DHT22;23195;47.744;7.358;2022-07-21T06:23:23;32.00;94.00
37310;DHT22;23195;47.744;7.358;2022-07-21T06:25:51;31.80;94.30
37310;DHT22;23195;47.744;7.358;2022-07-21T06:28:20;31.40;94.80
37310;DHT22;23195;47.744;7.358;2022-07-21T06:30:46;31.10;95.40
37310;DHT22;23195;47.744;7.358;2022-07-21T06:33:44;30.80;96.40
37310;DHT22;23195;47.744;7.358;2022-07-21T06:36:10;30.20;97.50
37310;DHT22;23195;47.744;7.358;2022-07-21T06:38:43;28.20;99.10
37310;DHT22;23195;47.744;7.358;2022-07-21T06:44:21;28.20;99.90
37310;DHT22;23195;47.744;7.358;2022-07-21T06:46:50;27.80;99.90
37310;DHT22;23195;47.744;7.358;2022-07-21T06:49:17;28.10;99.90
37310;DHT22;23195;47.744;7.358;2022-07-21T06:51:43;29.10;99.90
37310;DHT22;23195;47.744;7.358;2022-07-21T06:54:09;30.60;99.90
37310;DHT22;23195;47.744;7.358;2022-07-21T06:56:35;31.50;97.70
37310;DHT22;23195;47.744;7.358;2022-07-21T06:59:07;32.20;95.00
37310;DHT22;23195;47.744;7.358;2022-07-21T07:01:33;32.90;92.80
37310;DHT22;23195;47.744;7.358;2022-07-21T07:03:59;33.10;91.60
37310;DHT22;23195;47.744;7.358;2022-07-21T07:06:25;33.00;91.30
37310;DHT22;23195;47.744;7.358;2022-07-21T07:08:51;33.00;90.90
37310;DHT22;23195;47.744;7.358;2022-07-21T07:11:19;33.10;90.10
37310;DHT22;23195;47.744;7.358;2022-07-21T07:13:45;33.20;90.50
37310;DHT22;23195;47.744;7.358;2022-07-21T07:16:11;33.50;87.80
37310;DHT22;23195;47.744;7.358;2022-07-21T07:18:37;33.80;87.70
37310;DHT22;23195;47.744;7.358;2022-07-21T07:21:03;33.80;85.60
37310;DHT22;23195;47.744;7.358;2022-07-21T07:23:29;34.00;83.80
37310;DHT22;23195;47.744;7.358;2022-07-21T07:26:18;34.10;83.10
37310;DHT22;23195;47.744;7.358;2022-07-21T07:28:47;34.40;83.40
37310;DHT22;23195;47.744;7.358;2022-07-21T07:31:15;34.80;81.70
37310;DHT22;23195;47.744;7.358;2022-07-21T07:34:22;35.20;79.40
37310;DHT22;23195;47.744;7.358;2022-07-21T07:36:57;35.40;77.90
37310;DHT22;23195;47.744;7.358;2022-07-21T07:39:23;35.20;77.80
37310;DHT22;23195;47.744;7.358;2022-07-21T07:41:49;34.60;77.90
37310;DHT22;23195;47.744;7.358;2022-07-21T07:44:17;34.60;78.40
37310;DHT22;23195;47.744;7.358;2022-07-21T07:46:46;34.70;77.30
37310;DHT22;23195;47.744;7.358;2022-07-21T07:49:12;34.50;78.00
37310;DHT22;23195;47.744;7.358;2022-07-21T07:51:38;35.10;76.90
37310;DHT22;23195;47.744;7.358;2022-07-21T07:54:07;34.70;76.00
37310;DHT22;23195;47.744;7.358;2022-07-21T07:56:33;34.90;76.30
37310;DHT22;23195;47.744;7.358;2022-07-21T07:58:59;35.10;74.70
37310;DHT22;23195;47.744;7.358;2022-07-21T08:01:32;35.10;74.20
37310;DHT22;23195;47.744;7.358;2022-07-21T08:03:58;34.70;75.90
37310;DHT22;23195;47.744;7.358;2022-07-21T08:06:42;34.90;74.20
37310;DHT22;23195;47.744;7.358;2022-07-21T08:09:16;35.30;73.30
37310;DHT22;23195;47.744;7.358;2022-07-21T08:12:05;35.70;70.90
37310;DHT22;23195;47.744;7.358;2022-07-21T08:14:43;35.30;72.20
37310;DHT22;23195;47.744;7.358;2022-07-21T08:17:28;35.60;71.30
37310;DHT22;23195;47.744;7.358;2022-07-21T08:19:56;35.70;70.20
37310;DHT22;23195;47.744;7.358;2022-07-21T08:22:25;36.00;69.50
37310;DHT22;23195;47.744;7.358;2022-07-21T08:24:51;36.20;68.20
37310;DHT22;23195;47.744;7.358;2022-07-21T08:27:48;36.60;67.60
37310;DHT22;23195;47.744;7.358;2022-07-21T08:30:28;36.30;66.60
37310;DHT22;23195;47.744;7.358;2022-07-21T08:35:47;36.10;67.00
37310;DHT22;23195;47.744;7.358;2022-07-21T08:38:36;34.30;69.00
37310;DHT22;23195;47.744;7.358;2022-07-21T08:41:36;35.60;69.00
37310;DHT22;23195;47.744;7.358;2022-07-21T08:44:14;35.60;66.60
37310;DHT22;23195;47.744;7.358;2022-07-21T08:46:41;36.00;66.40
37310;DHT22;23195;47.744;7.358;2022-07-21T08:49:09;36.00;66.70
37310;DHT22;23195;47.744;7.358;2022-07-21T08:51:38;35.60;66.30
37310;DHT22;23195;47.744;7.358;2022-07-21T08:54:04;35.80;66.40
37310;DHT22;23195;47.744;7.358;2022-07-21T08:56:30;35.40;66.70
37310;DHT22;23195;47.744;7.358;2022-07-21T08:58:57;35.40;66.50
37310;DHT22;23195;47.744;7.358;2022-07-21T09:01:23;35.80;65.90
37310;DHT22;23195;47.744;7.358;2022-07-21T09:03:55;35.80;66.40
37310;DHT22;23195;47.744;7.358;2022-07-21T09:06:53;36.20;64.90
37310;DHT22;23195;47.744;7.358;2022-07-21T09:09:29;35.90;64.80
37310;DHT22;23195;47.744;7.358;2022-07-21T09:12:09;36.00;66.10
37310;DHT22;23195;47.744;7.358;2022-07-21T09:14:38;35.90;64.50
37310;DHT22;23195;47.744;7.358;2022-07-21T09:17:13;36.20;65.10
37310;DHT22;23195;47.744;7.358;2022-07-21T09:20:04;36.40;64.60
37310;DHT22;23195;47.744;7.358;2022-07-21T09:23:24;36.30;65.10
37310;DHT22;23195;47.744;7.358;2022-07-21T09:25:53;35.60;64.60
37310;DHT22;23195;47.744;7.358;2022-07-21T09:38:28;34.30;66.60
37310;DHT22;23195;47.744;7.358;2022-07-21T09:40:54;33.60;66.40
37310;DHT22;23195;47.744;7.358;2022-07-21T09:44:00;33.30;68.90
37310;DHT22;23195;47.744;7.358;2022-07-21T09:46:29;32.80;70.40
37310;DHT22;23195;47.744;7.358;2022-07-21T09:48:58;32.50;70.70
37310;DHT22;23195;47.744;7.358;2022-07-21T09:51:33;31.60;71.80
37310;DHT22;23195;47.744;7.358;2022-07-21T09:54:03;31.20;73.30
37310;DHT22;23195;47.744;7.358;2022-07-21T09:56:44;29.90;75.00
37310;DHT22;23195;47.744;7.358;2022-07-21T09:59:21;30.20;77.30
37310;DHT22;23195;47.744;7.358;2022-07-21T10:01:47;29.80;76.40
37310;DHT22;23195;47.744;7.358;2022-07-21T10:04:19;29.80;77.00
37310;DHT22;23195;47.744;7.358;2022-07-21T10:06:46;29.50;79.70
37310;DHT22;23195;47.744;7.358;2022-07-21T10:09:20;29.40;78.50
37310;DHT22;23195;47.744;7.358;2022-07-21T10:11:46;29.30;78.50
37310;DHT22;23195;47.744;7.358;2022-07-21T10:14:36;29.20;79.40
37310;DHT22;23195;47.744;7.358;2022-07-21T10:17:28;28.90;79.70
37310;DHT22;23195;47.744;7.358;2022-07-21T10:20:08;28.90;79.90
37310;DHT22;23195;47.744;7.358;2022-07-21T10:25:23;28.60;83.80
37310;DHT22;23195;47.744;7.358;2022-07-21T10:28:12;28.70;81.90
37310;DHT22;23195;47.744;7.358;2022-07-21T10:30:40;28.90;81.30
37310;DHT22;23195;47.744;7.358;2022-07-21T10:33:06;29.10;82.40
37310;DHT22;23195;47.744;7.358;2022-07-21T10:35:32;29.20;79.90
37310;DHT22;23195;47.744;7.358;2022-07-21T10:38:02;28.50;81.90
37310;DHT22;23195;47.744;7.358;2022-07-21T10:45:33;28.50;83.90
37310;DHT22;23195;47.744;7.358;2022-07-21T10:48:01;28.60;83.90
37310;DHT22;23195;47.744;7.358;2022-07-21T10:50:38;28.80;83.40
37310;DHT22;23195;47.744;7.358;2022-07-21T10:53:12;28.80;82.80
37310;DHT22;23195;47.744;7.358;2022-07-21T10:55:46;29.00;80.80
37310;DHT22;23195;47.744;7.358;2022-07-21T11:00:46;28.70;80.60
37310;DHT22;23195;47.744;7.358;2022-07-21T11:03:15;28.80;82.20
37310;DHT22;23195;47.744;7.358;2022-07-21T11:08:36;28.80;80.90
37310;DHT22;23195;47.744;7.358;2022-07-21T11:11:26;28.90;80.90
37310;DHT22;23195;47.744;7.358;2022-07-21T11:14:14;29.00;80.40
37310;DHT22;23195;47.744;7.358;2022-07-21T11:21:54;29.20;81.80
37310;DHT22;23195;47.744;7.358;2022-07-21T11:24:24;29.10;80.70
37310;DHT22;23195;47.744;7.358;2022-07-21T11:27:12;29.20;80.20
37310;DHT22;23195;47.744;7.358;2022-07-21T11:29:39;29.40;80.30
37310;DHT22;23195;47.744;7.358;2022-07-21T11:32:10;29.50;79.20
37310;DHT22;23195;47.744;7.358;2022-07-21T11:34:42;29.50;78.90
37310;DHT22;23195;47.744;7.358;2022-07-21T11:37:10;29.50;79.40
37310;DHT22;23195;47.744;7.358;2022-07-21T11:39:36;29.50;78.90
37310;DHT22;23195;47.744;7.358;2022-07-21T11:42:15;29.40;79.00
37310;DHT22;23195;47.744;7.358;2022-07-21T11:44:52;29.30;78.80
37310;DHT22;23195;47.744;7.358;2022-07-21T11:47:18;29.40;79.30
37310;DHT22;23195;47.744;7.358;2022-07-21T11:49:46;29.20;80.00
37310;DHT22;23195;47.744;7.358;2022-07-21T11:52:14;29.20;79.40
37310;DHT22;23195;47.744;7.358;2022-07-21T11:54:48;29.30;77.60
37310;DHT22;23195;47.744;7.358;2022-07-21T11:57:16;29.20;78.90
37310;DHT22;23195;47.744;7.358;2022-07-21T11:59:42;29.40;78.30
37310;DHT22;23195;47.744;7.358;2022-07-21T12:02:14;29.50;77.20
37310;DHT22;23195;47.744;7.358;2022-07-21T12:04:56;29.40;76.20
37310;DHT22;23195;47.744;7.358;2022-07-21T12:07:38;29.50;77.20
37310;DHT22;23195;47.744;7.358;2022-07-21T12:12:35;29.60;75.70
37310;DHT22;23195;47.744;7.358;2022-07-21T12:15:21;29.50;77.20
37310;DHT22;23195;47.744;7.358;2022-07-21T12:18:07;29.80;76.70
37310;DHT22;23195;47.744;7.358;2022-07-21T12:20:39;29.80;75.00
37310;DHT22;23195;47.744;7.358;2022-07-21T12:23:23;29.80;77.20
37310;DHT22;23195;47.744;7.358;2022-07-21T12:25:57;29.90;75.10
37310;DHT22;23195;47.744;7.358;2022-07-21T12:28:46;29.70;75.40
37310;DHT22;23195;47.744;7.358;2022-07-21T12:31:18;29.80;75.30
37310;DHT22;23195;47.744;7.358;2022-07-21T12:33:48;29.80;74.70
37310;DHT22;23195;47.744;7.358;2022-07-21T12:36:15;29.80;75.30
37310;DHT22;23195;47.744;7.358;2022-07-21T12:38:48;29.80;74.70
37310;DHT22;23195;47.744;7.358;2022-07-21T12:41:19;29.70;73.80
37310;DHT22;23195;47.744;7.358;2022-07-21T12:44:00;29.60;75.50
37310;DHT22;23195;47.744;7.358;2022-07-21T12:46:36;29.70;75.70
37310;DHT22;23195;47.744;7.358;2022-07-21T12:49:08;29.90;74.90
37310;DHT22;23195;47.744;7.358;2022-07-21T12:51:35;30.00;75.30
37310;DHT22;23195;47.744;7.358;2022-07-21T12:54:04;30.00;75.10
37310;DHT22;23195;47.744;7.358;2022-07-21T12:56:32;30.00;75.00
37310;DHT22;23195;47.744;7.358;2022-07-21T12:58:59;29.90;75.00
37310;DHT22;23195;47.744;7.358;2022-07-21T13:01:27;30.00;76.30
37310;DHT22;23195;47.744;7.358;2022-07-21T13:03:54;30.00;74.30
37310;DHT22;23195;47.744;7.358;2022-07-21T13:06:23;30.10;74.20
37310;DHT22;23195;47.744;7.358;2022-07-21T13:08:49;30.20;75.20
37310;DHT22;23195;47.744;7.358;2022-07-21T13:11:17;30.20;74.30
37310;DHT22;23195;47.744;7.358;2022-07-21T13:13:52;30.30;74.60
37310;DHT22;23195;47.744;7.358;2022-07-21T13:16:19;30.30;74.40
37310;DHT22;23195;47.744;7.358;2022-07-21T13:18:45;30.40;74.60
37310;DHT22;23195;47.744;7.358;2022-07-21T13:21:12;30.40;73.10
37310;DHT22;23195;47.744;7.358;2022-07-21T13:23:44;30.40;72.00
37310;DHT22;23195;47.744;7.358;2022-07-21T13:26:10;30.40;72.10
37310;DHT22;23195;47.744;7.358;2022-07-21T13:28:36;30.40;74.10
37310;DHT22;23195;47.744;7.358;2022-07-21T13:31:02;30.30;73.00
37310;DHT22;23195;47.744;7.358;2022-07-21T13:33:28;30.30;72.50
37310;DHT22;23195;47.744;7.358;2022-07-21T13:36:05;30.50;71.60
37310;DHT22;23195;47.744;7.358;2022-07-21T13:38:31;30.30;72.70
37310;DHT22;23195;47.744;7.358;2022-07-21T13:40:57;30.50;73.60
37310;DHT22;23195;47.744;7.358;2022-07-21T13:43:23;30.60;71.90
37310;DHT22;23195;47.744;7.358;2022-07-21T13:45:49;30.60;70.70
37310;DHT22;23195;47.744;7.358;2022-07-21T13:48:15;30.40;72.90
37310;DHT22;23195;47.744;7.358;2022-07-21T13:50:41;30.40;72.10
37310;DHT22;23195;47.744;7.358;2022-07-21T13:53:08;30.40;71.70
37310;DHT22;23195;47.744;7.358;2022-07-21T13:55:43;30.30;72.40
37310;DHT22;23195;47.744;7.358;2022-07-21T13:58:09;30.30;72.40
37310;DHT22;23195;47.744;7.358;2022-07-21T14:00:36;30.40;71.00
37310;DHT22;23195;47.744;7.358;2022-07-21T14:03:04;30.60;70.20
37310;DHT22;23195;47.744;7.358;2022-07-21T14:05:30;30.50;69.80
37310;DHT22;23195;47.744;7.358;2022-07-21T14:07:55;30.50;70.60
37310;DHT22;23195;47.744;7.358;2022-07-21T14:10:21;30.50;69.60
37310;DHT22;23195;47.744;7.358;2022-07-21T14:12:47;30.60;70.50
37310;DHT22;23195;47.744;7.358;2022-07-21T14:15:13;30.60;67.70
37310;DHT22;23195;47.744;7.358;2022-07-21T14:17:38;30.70;69.50
37310;DHT22;23195;47.744;7.358;2022-07-21T14:20:05;30.70;70.60
37310;DHT22;23195;47.744;7.358;2022-07-21T14:22:31;30.80;68.20
37310;DHT22;23195;47.744;7.358;2022-07-21T14:24:57;30.60;67.60
37310;DHT22;23195;47.744;7.358;2022-07-21T14:27:41;30.40;70.30
37310;DHT22;23195;47.744;7.358;2022-07-21T14:30:07;30.40;68.80
37310;DHT22;23195;47.744;7.358;2022-07-21T14:32:35;30.50;68.80
37310;DHT22;23195;47.744;7.358;2022-07-21T14:35:02;30.50;67.70
37310;DHT22;23195;47.744;7.358;2022-07-21T14:37:28;30.60;68.30
37310;DHT22;23195;47.744;7.358;2022-07-21T14:39:54;30.50;67.10
37310;DHT22;23195;47.744;7.358;2022-07-21T14:42:20;30.70;67.70
37310;DHT22;23195;47.744;7.358;2022-07-21T14:44:50;30.80;66.50
37310;DHT22;23195;47.744;7.358;2022-07-21T14:47:16;30.80;65.70
37310;DHT22;23195;47.744;7.358;2022-07-21T14:49:42;30.80;66.40
37310;DHT22;23195;47.744;7.358;2022-07-21T14:52:08;30.70;66.40
37310;DHT22;23195;47.744;7.358;2022-07-21T14:54:42;30.60;66.60
37310;DHT22;23195;47.744;7.358;2022-07-21T14:57:10;30.60;66.20
37310;DHT22;23195;47.744;7.358;2022-07-21T14:59:36;30.70;65.60
37310;DHT22;23195;47.744;7.358;2022-07-21T15:02:02;30.80;65.90
37310;DHT22;23195;47.744;7.358;2022-07-21T15:04:30;30.80;65.30
37310;DHT22;23195;47.744;7.358;2022-07-21T15:06:56;30.80;65.90
37310;DHT22;23195;47.744;7.358;2022-07-21T15:09:22;30.80;66.40
37310;DHT22;23195;47.744;7.358;2022-07-21T15:11:48;30.70;66.00
37310;DHT22;23195;47.744;7.358;2022-07-21T15:14:14;30.80;66.10
37310;DHT22;23195;47.744;7.358;2022-07-21T15:16:40;30.80;65.00
37310;DHT22;23195;47.744;7.358;2022-07-21T15:19:06;30.80;65.30
37310;DHT22;23195;47.744;7.358;2022-07-21T15:21:58;30.90;65.20
37310;DHT22;23195;47.744;7.358;2022-07-21T15:24:24;31.00;64.20
37310;DHT22;23195;47.744;7.358;2022-07-21T15:26:50;31.00;64.80
37310;DHT22;23195;47.744;7.358;2022-07-21T15:29:19;31.00;64.80
37310;DHT22;23195;47.744;7.358;2022-07-21T15:31:44;30.60;63.90
37310;DHT22;23195;47.744;7.358;2022-07-21T15:34:10;30.90;64.30
37310;DHT22;23195;47.744;7.358;2022-07-21T15:36:36;30.80;63.40
37310;DHT22;23195;47.744;7.358;2022-07-21T15:39:06;30.80;63.80
37310;DHT22;23195;47.744;7.358;2022-07-21T15:41:36;30.90;64.20
37310;DHT22;23195;47.744;7.358;2022-07-21T15:44:02;31.00;63.00
37310;DHT22;23195;47.744;7.358;2022-07-21T15:46:28;31.00;62.70
37310;DHT22;23195;47.744;7.358;2022-07-21T15:48:54;31.00;61.50
37310;DHT22;23195;47.744;7.358;2022-07-21T15:51:20;30.80;62.10
37310;DHT22;23195;47.744;7.358;2022-07-21T15:53:45;30.80;63.70
37310;DHT22;23195;47.744;7.358;2022-07-21T15:56:13;30.90;63.10
37310;DHT22;23195;47.744;7.358;2022-07-21T15:58:41;30.90;63.70
37310;DHT22;23195;47.744;7.358;2022-07-21T16:01:27;30.80;63.90
37310;DHT22;23195;47.744;7.358;2022-07-21T16:03:53;30.80;64.30
37310;DHT22;23195;47.744;7.358;2022-07-21T16:06:19;30.80;63.90
37310;DHT22;23195;47.744;7.358;2022-07-21T16:08:55;30.80;62.70
37310;DHT22;23195;47.744;7.358;2022-07-21T16:11:25;30.70;62.80
37310;DHT22;23195;47.744;7.358;2022-07-21T16:13:59;30.70;63.40
37310;DHT22;23195;47.744;7.358;2022-07-21T16:16:55;30.50;63.70
37310;DHT22;23195;47.744;7.358;2022-07-21T16:19:22;30.60;62.80
37310;DHT22;23195;47.744;7.358;2022-07-21T16:22:34;30.60;62.30
37310;DHT22;23195;47.744;7.358;2022-07-21T16:25:18;30.50;62.30
37310;DHT22;23195;47.744;7.358;2022-07-21T16:27:49;30.50;62.10
37310;DHT22;23195;47.744;7.358;2022-07-21T16:30:19;30.50;62.40
37310;DHT22;23195;47.744;7.358;2022-07-21T16:32:48;30.50;62.80
37310;DHT22;23195;47.744;7.358;2022-07-21T16:35:14;30.50;62.80
37310;DHT22;23195;47.744;7.358;2022-07-21T16:37:44;30.50;62.50
37310;DHT22;23195;47.744;7.358;2022-07-21T16:40:12;30.50;62.30
37310;DHT22;23195;47.744;7.358;2022-07-21T16:42:40;30.40;62.10
37310;DHT22;23195;47.744;7.358;2022-07-21T16:45:06;30.30;61.90
37310;DHT22;23195;47.744;7.358;2022-07-21T16:47:35;30.30;62.40
37310;DHT22;23195;47.744;7.358;2022-07-21T16:50:14;30.40;63.20
37310;DHT22;23195;47.744;7.358;2022-07-21T16:52:48;30.40;63.70
37310;DHT22;23195;47.744;7.358;2022-07-21T16:55:20;30.10;63.80
37310;DHT22;23195;47.744;7.358;2022-07-21T16:57:52;30.10;63.60
37310;DHT22;23195;47.744;7.358;2022-07-21T17:00:18;30.00;63.10
37310;DHT22;23195;47.744;7.358;2022-07-21T17:02:45;29.90;64.10
37310;DHT22;23195;47.744;7.358;2022-07-21T17:05:34;30.00;63.90
37310;DHT22;23195;47.744;7.358;2022-07-21T17:08:02;30.00;64.30
37310;DHT22;23195;47.744;7.358;2022-07-21T17:10:30;29.90;63.70
37310;DHT22;23195;47.744;7.358;2022-07-21T17:12:59;29.80;64.40
37310;DHT22;23195;47.744;7.358;2022-07-21T17:15:30;29.70;64.40
37310;DHT22;23195;47.744;7.358;2022-07-21T17:17:59;29.80;64.80
37310;DHT22;23195;47.744;7.358;2022-07-21T17:20:34;29.80;64.50
37310;DHT22;23195;47.744;7.358;2022-07-21T17:23:09;29.60;64.00
37310;DHT22;23195;47.744;7.358;2022-07-21T17:25:36;29.60;63.90
37310;DHT22;23195;47.744;7.358;2022-07-21T17:28:02;29.60;63.70
37310;DHT22;23195;47.744;7.358;2022-07-21T17:30:31;29.50;64.20
37310;DHT22;23195;47.744;7.358;2022-07-21T17:32:58;29.50;64.60
37310;DHT22;23195;47.744;7.358;2022-07-21T17:35:23;29.50;64.50
37310;DHT22;23195;47.744;7.358;2022-07-21T17:37:49;29.50;65.10
37310;DHT22;23195;47.744;7.358;2022-07-21T17:40:16;29.40;65.00
37310;DHT22;23195;47.744;7.358;2022-07-21T17:42:42;29.30;65.30
37310;DHT22;23195;47.744;7.358;2022-07-21T17:45:08;29.30;65.70
37310;DHT22;23195;47.744;7.358;2022-07-21T17:47:34;29.30;65.10
37310;DHT22;23195;47.744;7.358;2022-07-21T17:50:01;29.20;65.40
37310;DHT22;23195;47.744;7.358;2022-07-21T17:52:27;29.10;66.40
37310;DHT22;23195;47.744;7.358;2022-07-21T17:54:53;29.10;66.00
37310;DHT22;23195;47.744;7.358;2022-07-21T17:57:20;29.00;66.70
37310;DHT22;23195;47.744;7.358;2022-07-21T18:00:05;28.90;66.50
37310;DHT22;23195;47.744;7.358;2022-07-21T18:02:34;29.00;66.40
37310;DHT22;23195;47.744;7.358;2022-07-21T18:05:00;28.90;66.50
37310;DHT22;23195;47.744;7.358;2022-07-21T18:07:29;28.90;66.40
37310;DHT22;23195;47.744;7.358;2022-07-21T18:09:55;28.80;66.70
37310;DHT22;23195;47.744;7.358;2022-07-21T18:12:24;28.70;67.20
37310;DHT22;23195;47.744;7.358;2022-07-21T18:14:51;28.70;72.70
37310;DHT22;23195;47.744;7.358;2022-07-21T18:17:16;28.60;74.60
37310;DHT22;23195;47.744;7.358;2022-07-21T18:19:42;28.70;77.20
37310;DHT22;23195;47.744;7.358;2022-07-21T18:22:08;28.40;76.60
37310;DHT22;23195;47.744;7.358;2022-07-21T18:24:34;28.30;77.20
37310;DHT22;23195;47.744;7.358;2022-07-21T18:27:00;28.20;77.80
37310;DHT22;23195;47.744;7.358;2022-07-21T18:29:26;28.10;78.60
37310;DHT22;23195;47.744;7.358;2022-07-21T18:31:52;28.00;79.30
37310;DHT22;23195;47.744;7.358;2022-07-21T18:34:18;27.90;79.90